SBPA Airport Information

Runway Information
Runway 11 Length 7480 ft width 138 ft
Elevation 11 ft Threshold 0 ft Heading 91
Runway 29 Length 7480 ft Width 138 ft
Elevation 11 ft Threshold 0 ft Heading 271
Airport Frequencies
Type APP Name PALEGRE AP Frequency 119 MHZ
Type ATIS Name ATIS Frequency 127.85 MHZ
Type GND Name GND Frequency 121.9 MHZ
Type TWR Name PALEGRE TW Frequency 118.1 MHZ
Airport Navaids
Type NDB Name Pestana Frequency 395 KHZ
Type NDB Name Guaiba Frequency 345 KHZ
Type NDB Name Salgado Frequency 315 KHZ
Type NDB Name Porto Alegre Frequency 330 KHZ
Type VOR-DME Name Porto Alegre Frequency 114000 KHZ
Airport Weather Information & NOTAM
ADDS - METARS form results

(1800 UTC 22 May 2019)
Data provider http://aviationweather.gov/metar/data/
 
METAR text: SBPA 221736Z 15005KT 3000 RA BKN007 OVC012 20/20 Q1014
Conditions at: SBPA (PORTO ALEGRE/SAL, BR) observed 1736 UTC 22 May 2019
Temperature: 20.0°C (68°F)
Dewpoint: 20.0°C (68°F) [RH = 100%]
Pressure (altimeter): 29.94 inches Hg (1014.0 mb)
Winds: from the SSE (150 degrees) at 6 MPH (5 knots; 2.6 m/s)
Visibility: 1.86 miles (2.99 km)
Ceiling: 700 feet AGL
Clouds: broken clouds at 700 feet AGL
overcast cloud deck at 1200 feet AGL
Weather: RA  (moderate rain)

METAR text: SBPA 221725Z 15010KT 3000 RA BKN012 OVC025 20/19 Q1013
Conditions at: SBPA (PORTO ALEGRE/SAL, BR) observed 1725 UTC 22 May 2019
Temperature: 20.0°C (68°F)
Dewpoint: 19.0°C (66°F) [RH = 94%]
Pressure (altimeter): 29.91 inches Hg (1013.0 mb)
Winds: from the SSE (150 degrees) at 12 MPH (10 knots; 5.1 m/s)
Visibility: 1.86 miles (2.99 km)
Ceiling: 1200 feet AGL
Clouds: broken clouds at 1200 feet AGL
overcast cloud deck at 2500 feet AGL
Weather: RA  (moderate rain)

Forecast for: SBPA (PORTO ALEGRE/SAL, BR)
Text: TAF SBPA 221530Z 2218/2318 12007KT 9999 BKN030 TX22/2218Z TN17/2308Z
Forecast period: 1800 UTC 22 May 2019 to 1800 UTC 23 May 2019
Forecast type: FROM: standard forecast or significant change
Winds: from the ESE (120 degrees) at 8 MPH (7 knots; 3.6 m/s)
Visibility: 6 or more miles 10+ km)
Ceiling: 3000 feet AGL
Clouds: broken clouds at 3000 feet AGL
Weather: no significant weather forecast for this period
Text: TEMPO 2310/2318 15007KT 8000 RA BKN010 BKN020 RMK PEB
Forecast period: 1000 to 1800 UTC 23 May 2019
Forecast type: TEMPORARY: The following changes expected for less than half the time period
Winds: from the SSE (150 degrees) at 8 MPH (7 knots; 3.6 m/s)
Visibility: 5 miles (8 km)
Ceiling: 1000 feet AGL
Clouds: broken clouds at 1000 feet AGL
broken clouds at 2000 feet AGL
Weather: RA  (moderate rain)